Авиационная погода в Mărculeşti International Airport

СКИДКИ НА СМАРТФОНЫ!

Регион: 
Погода METAR: 
LUBM 270700Z 23003KT 180V260 CAVOK 29/14 Q1010
Время наблюдения
2022-07-27T07:00:00Z
Температура C
29.0
Точка росы
14.0
Направление ветра
230
Скорость ветра (узлы)
3
Метео видимость
6.21
Облачность
CAVOK
Нижняя граница облачности (футы)
Явления погоды
Условия полета
VFR

Скидки на навигаторы!